DAAS

Ain Arnat Airport

Sétif, Algeria
METAR DAAS 241100Z 13003KT CAVOK 26/09 Q1026
Observed Flight Rules
Sep-24 @ 11:00 UTC (31 minutes ago) Visual Flight Rules
Wind Visibility Clouds
130° at 3 knots 10,000+ meters
  • Clear skies
Temperatures Readings
Current 26°C / 79°F
Dewpoint 9°C / 48°F
Humidity 34%
Altimeter 30.3" Hg
Pressure 1026 hPa
Elevation 1038
METAR DAAS 241100Z 13003KT CAVOK 26/09 Q1026
Observed Flight Rules
Sep-24 @ 11:00 UTC
(31 minutes ago)
VFR
Wind Visibility
130° at 3 knots 10,000+ meters
Clouds
  • Clear skies
Temperature Dewpoint
26°C / 79°F 9°C / 48°F
Humidity Altimeter Pressure
34% 30.3" Hg 1026 hPa